YMER

Details ICAO YMER (MIM)
Name Merimbula
Region Australia
Timezone Australia/Sydney (UTC+11.0)
Plans Departing 78
Arriving 117
Stats Elevation 7 ft / 2 m (AMSL)
Location -36.908600° 149.901000°
Runways 1
Magnetic Variation 13.376° E
Sunrise 2021-01-25 19:10:17 UTC / 2021-01-26 06:10:17 Local
Sunset 2021-01-26 09:17:46 UTC / 2021-01-26 20:17:46 Local
Advertisement - Login to hide

Runways

ID Width Length Bearing (true/mag) Surface Threshold Overrun Markings Lighting
03 98 ft / 30 m 5,261 ft / 1,604 m 33.92° / 20.54° ASPHALT 0 ft / 0 m 0 ft / 0 m PREC-APP EDGE THRESHOLD
21 98 ft / 30 m 5,261 ft / 1,604 m 213.91° / 200.54° ASPHALT 0 ft / 0 m 0 ft / 0 m PREC-APP EDGE THRESHOLD

Map

Weather


0- 5 10 15 20 25 30 35+ Temperature / °C

Clouds and Precipitation
Forecast for 2021-01-26 06:00 UTC. Updated an hour ago

Ground ~20,000 ft ~40,000 ft Winds

METAR

YMER 260500Z AUTO 18006KT 9999 -RA BKN062 OVC071 21/20 Q1001

TAF

Not found

Frequencies

Unicom 126.70 MHz MERIMBULA CTAF MULT
Warning: Do not use this data for real-world aviation or navigation. No guarantee of current accuracy is given.